sensor_id;sensor_type;location;lat;lon;timestamp;pressure;altitude;pressure_sealevel;temperature;humidity
15670;BME280;18524;45.190;5.732;2023-05-08T00:02:31;99506.75;;;17.40;100.00
15670;BME280;18524;45.190;5.732;2023-05-08T00:07:22;99512.69;;;17.34;100.00
15670;BME280;18524;45.190;5.732;2023-05-08T00:12:12;99500.25;;;17.26;100.00
15670;BME280;18524;45.190;5.732;2023-05-08T00:17:02;99507.94;;;17.11;100.00
15670;BME280;18524;45.190;5.732;2023-05-08T00:21:53;99495.81;;;17.09;100.00
15670;BME280;18524;45.190;5.732;2023-05-08T00:26:43;99493.47;;;17.06;100.00
15670;BME280;18524;45.190;5.732;2023-05-08T00:31:34;99488.19;;;17.06;100.00
15670;BME280;18524;45.190;5.732;2023-05-08T00:36:25;99495.63;;;17.02;100.00
15670;BME280;18524;45.190;5.732;2023-05-08T00:41:15;99490.09;;;16.96;100.00
15670;BME280;18524;45.190;5.732;2023-05-08T00:46:05;99479.97;;;16.91;100.00
15670;BME280;18524;45.190;5.732;2023-05-08T00:50:57;99478.78;;;16.85;100.00
15670;BME280;18524;45.190;5.732;2023-05-08T00:55:49;99475.72;;;16.98;100.00
15670;BME280;18524;45.190;5.732;2023-05-08T01:00:41;99478.72;;;17.03;100.00
15670;BME280;18524;45.190;5.732;2023-05-08T01:05:33;99477.13;;;16.84;100.00
15670;BME280;18524;45.190;5.732;2023-05-08T01:10:26;99472.81;;;16.83;100.00
15670;BME280;18524;45.190;5.732;2023-05-08T01:15:41;99478.63;;;16.87;100.00
15670;BME280;18524;45.190;5.732;2023-05-08T01:20:44;99478.00;;;16.93;100.00
15670;BME280;18524;45.190;5.732;2023-05-08T01:25:52;99479.97;;;16.91;100.00
15670;BME280;18524;45.190;5.732;2023-05-08T01:31:11;99479.63;;;16.86;100.00
15670;BME280;18524;45.190;5.732;2023-05-08T01:41:33;99477.97;;;16.85;100.00
15670;BME280;18524;45.190;5.732;2023-05-08T01:46:26;99476.75;;;16.79;100.00
15670;BME280;18524;45.190;5.732;2023-05-08T01:51:20;99472.94;;;16.74;100.00
15670;BME280;18524;45.190;5.732;2023-05-08T01:56:15;99471.16;;;16.82;100.00
15670;BME280;18524;45.190;5.732;2023-05-08T02:01:07;99463.00;;;16.76;100.00
15670;BME280;18524;45.190;5.732;2023-05-08T02:05:59;99464.25;;;16.90;100.00
15670;BME280;18524;45.190;5.732;2023-05-08T02:10:50;99466.53;;;16.84;100.00
15670;BME280;18524;45.190;5.732;2023-05-08T02:15:41;99466.91;;;16.90;100.00
15670;BME280;18524;45.190;5.732;2023-05-08T02:20:32;99475.00;;;16.88;100.00
15670;BME280;18524;45.190;5.732;2023-05-08T02:25:24;99471.69;;;16.86;100.00
15670;BME280;18524;45.190;5.732;2023-05-08T02:30:16;99464.25;;;16.90;100.00
15670;BME280;18524;45.190;5.732;2023-05-08T02:35:08;99478.13;;;16.83;100.00
15670;BME280;18524;45.190;5.732;2023-05-08T02:40:00;99473.81;;;16.82;100.00
15670;BME280;18524;45.190;5.732;2023-05-08T02:44:53;99471.84;;;16.84;100.00
15670;BME280;18524;45.190;5.732;2023-05-08T02:49:54;99467.31;;;16.77;100.00
15670;BME280;18524;45.190;5.732;2023-05-08T03:00:22;99471.25;;;16.73;100.00
15670;BME280;18524;45.190;5.732;2023-05-08T03:05:18;99467.09;;;16.52;100.00
15670;BME280;18524;45.190;5.732;2023-05-08T03:10:11;99467.47;;;16.57;100.00
15670;BME280;18524;45.190;5.732;2023-05-08T03:15:09;99467.56;;;16.48;100.00
15670;BME280;18524;45.190;5.732;2023-05-08T03:20:03;99455.00;;;16.50;100.00
15670;BME280;18524;45.190;5.732;2023-05-08T03:24:59;99459.75;;;16.46;100.00
15670;BME280;18524;45.190;5.732;2023-05-08T03:29:52;99458.63;;;16.49;100.00
15670;BME280;18524;45.190;5.732;2023-05-08T03:34:43;99453.44;;;16.39;100.00
15670;BME280;18524;45.190;5.732;2023-05-08T03:39:34;99452.66;;;16.47;100.00
15670;BME280;18524;45.190;5.732;2023-05-08T03:44:25;99455.16;;;16.31;100.00
15670;BME280;18524;45.190;5.732;2023-05-08T03:49:17;99461.94;;;16.33;100.00
15670;BME280;18524;45.190;5.732;2023-05-08T03:54:09;99456.22;;;16.38;100.00
15670;BME280;18524;45.190;5.732;2023-05-08T03:59:09;99464.06;;;16.47;100.00
15670;BME280;18524;45.190;5.732;2023-05-08T04:04:26;99455.03;;;16.58;100.00
15670;BME280;18524;45.190;5.732;2023-05-08T04:09:23;99461.03;;;16.60;100.00
15670;BME280;18524;45.190;5.732;2023-05-08T04:14:18;99459.03;;;16.62;100.00
15670;BME280;18524;45.190;5.732;2023-05-08T04:19:14;99457.38;;;16.61;100.00
15670;BME280;18524;45.190;5.732;2023-05-08T04:24:09;99467.97;;;16.61;100.00
15670;BME280;18524;45.190;5.732;2023-05-08T04:29:01;99472.59;;;16.59;100.00
15670;BME280;18524;45.190;5.732;2023-05-08T04:33:53;99472.44;;;16.61;100.00
15670;BME280;18524;45.190;5.732;2023-05-08T04:38:43;99468.06;;;16.69;100.00
15670;BME280;18524;45.190;5.732;2023-05-08T04:43:34;99468.22;;;16.68;100.00
15670;BME280;18524;45.190;5.732;2023-05-08T04:48:25;99472.13;;;16.64;100.00
15670;BME280;18524;45.190;5.732;2023-05-08T04:53:15;99462.91;;;16.68;100.00
15670;BME280;18524;45.190;5.732;2023-05-08T04:58:06;99468.75;;;16.71;100.00
15670;BME280;18524;45.190;5.732;2023-05-08T05:02:56;99468.06;;;16.51;100.00
15670;BME280;18524;45.190;5.732;2023-05-08T05:07:46;99473.38;;;16.51;100.00
15670;BME280;18524;45.190;5.732;2023-05-08T05:12:37;99479.19;;;16.55;100.00
15670;BME280;18524;45.190;5.732;2023-05-08T05:17:29;99481.44;;;16.85;100.00
15670;BME280;18524;45.190;5.732;2023-05-08T05:22:19;99484.53;;;17.07;100.00
15670;BME280;18524;45.190;5.732;2023-05-08T05:27:10;99488.41;;;16.86;100.00
15670;BME280;18524;45.190;5.732;2023-05-08T05:32:00;99477.97;;;16.85;100.00
15670;BME280;18524;45.190;5.732;2023-05-08T05:36:51;99493.75;;;16.95;100.00
15670;BME280;18524;45.190;5.732;2023-05-08T05:41:41;99498.47;;;17.09;100.00
15670;BME280;18524;45.190;5.732;2023-05-08T05:46:33;99507.63;;;17.14;100.00
15670;BME280;18524;45.190;5.732;2023-05-08T05:51:24;99504.13;;;17.40;100.00
15670;BME280;18524;45.190;5.732;2023-05-08T05:56:14;99518.41;;;18.31;100.00
15670;BME280;18524;45.190;5.732;2023-05-08T06:01:04;99513.13;;;19.04;100.00
15670;BME280;18524;45.190;5.732;2023-05-08T06:05:55;99503.16;;;19.70;95.03
15670;BME280;18524;45.190;5.732;2023-05-08T06:10:45;99519.44;;;19.75;93.96
15670;BME280;18524;45.190;5.732;2023-05-08T06:15:35;99512.28;;;19.76;94.55
15670;BME280;18524;45.190;5.732;2023-05-08T06:20:26;99512.75;;;20.10;91.23
15670;BME280;18524;45.190;5.732;2023-05-08T06:25:16;99507.38;;;19.40;95.79
15670;BME280;18524;45.190;5.732;2023-05-08T06:30:07;99509.75;;;19.19;97.01
15670;BME280;18524;45.190;5.732;2023-05-08T06:34:59;99516.94;;;18.78;99.79
15670;BME280;18524;45.190;5.732;2023-05-08T06:39:50;99505.94;;;18.40;100.00
15670;BME280;18524;45.190;5.732;2023-05-08T06:44:40;99504.56;;;18.20;100.00
15670;BME280;18524;45.190;5.732;2023-05-08T06:49:30;99505.41;;;18.20;100.00
15670;BME280;18524;45.190;5.732;2023-05-08T06:54:21;99501.91;;;18.03;100.00
15670;BME280;18524;45.190;5.732;2023-05-08T06:59:11;99498.75;;;18.00;100.00
15670;BME280;18524;45.190;5.732;2023-05-08T07:04:02;99501.56;;;17.98;100.00
15670;BME280;18524;45.190;5.732;2023-05-08T07:08:53;99514.00;;;17.98;100.00
15670;BME280;18524;45.190;5.732;2023-05-08T07:13:43;99506.06;;;18.14;100.00
15670;BME280;18524;45.190;5.732;2023-05-08T07:18:37;99502.28;;;18.41;100.00
15670;BME280;18524;45.190;5.732;2023-05-08T07:23:27;99503.47;;;18.47;100.00
15670;BME280;18524;45.190;5.732;2023-05-08T07:28:18;99497.16;;;18.48;100.00
15670;BME280;18524;45.190;5.732;2023-05-08T07:33:08;99499.03;;;18.71;100.00
15670;BME280;18524;45.190;5.732;2023-05-08T07:37:58;99504.66;;;19.01;100.00
15670;BME280;18524;45.190;5.732;2023-05-08T07:42:51;99493.69;;;18.96;100.00
15670;BME280;18524;45.190;5.732;2023-05-08T07:47:56;99486.53;;;18.88;100.00
15670;BME280;18524;45.190;5.732;2023-05-08T07:52:47;99490.09;;;19.28;100.00
15670;BME280;18524;45.190;5.732;2023-05-08T07:57:41;99489.59;;;19.41;100.00
15670;BME280;18524;45.190;5.732;2023-05-08T08:02:32;99482.47;;;19.33;99.88
15670;BME280;18524;45.190;5.732;2023-05-08T08:07:22;99490.03;;;19.60;99.04
15670;BME280;18524;45.190;5.732;2023-05-08T08:12:13;99482.66;;;20.02;97.77
15670;BME280;18524;45.190;5.732;2023-05-08T08:17:03;99479.13;;;20.32;93.86
15670;BME280;18524;45.190;5.732;2023-05-08T08:21:53;99477.63;;;20.60;89.86
15670;BME280;18524;45.190;5.732;2023-05-08T08:26:44;99476.81;;;20.75;89.63
15670;BME280;18524;45.190;5.732;2023-05-08T08:31:34;99467.56;;;20.85;88.83
15670;BME280;18524;45.190;5.732;2023-05-08T08:36:25;99469.78;;;21.11;87.68
15670;BME280;18524;45.190;5.732;2023-05-08T08:41:15;99468.41;;;21.15;85.76
15670;BME280;18524;45.190;5.732;2023-05-08T08:46:13;99471.84;;;21.39;85.41
15670;BME280;18524;45.190;5.732;2023-05-08T08:51:06;99466.31;;;21.55;82.61
15670;BME280;18524;45.190;5.732;2023-05-08T08:56:00;99465.50;;;21.40;82.02
15670;BME280;18524;45.190;5.732;2023-05-08T09:00:51;99466.88;;;21.21;81.13
15670;BME280;18524;45.190;5.732;2023-05-08T09:05:44;99458.81;;;21.29;80.16
15670;BME280;18524;45.190;5.732;2023-05-08T09:10:38;99454.47;;;21.28;79.85
15670;BME280;18524;45.190;5.732;2023-05-08T09:15:30;99460.97;;;21.55;78.59
15670;BME280;18524;45.190;5.732;2023-05-08T09:20:21;99472.66;;;21.54;78.16
15670;BME280;18524;45.190;5.732;2023-05-08T09:25:12;99474.69;;;21.67;77.95
15670;BME280;18524;45.190;5.732;2023-05-08T09:30:09;99483.50;;;21.82;78.70
15670;BME280;18524;45.190;5.732;2023-05-08T09:35:00;99484.75;;;21.86;78.21
15670;BME280;18524;45.190;5.732;2023-05-08T09:39:50;99481.59;;;22.12;78.55
15670;BME280;18524;45.190;5.732;2023-05-08T09:44:51;99489.56;;;22.27;76.54
15670;BME280;18524;45.190;5.732;2023-05-08T09:50:01;99500.47;;;22.46;75.79
15670;BME280;18524;45.190;5.732;2023-05-08T09:54:59;99497.44;;;22.56;74.51
15670;BME280;18524;45.190;5.732;2023-05-08T09:59:50;99498.22;;;22.71;73.89
15670;BME280;18524;45.190;5.732;2023-05-08T10:04:41;99495.75;;;22.98;73.32
15670;BME280;18524;45.190;5.732;2023-05-08T10:09:32;99483.16;;;23.20;72.06
15670;BME280;18524;45.190;5.732;2023-05-08T10:14:23;99486.47;;;23.22;72.48
15670;BME280;18524;45.190;5.732;2023-05-08T10:19:16;99488.00;;;23.37;71.28
15670;BME280;18524;45.190;5.732;2023-05-08T10:24:12;99480.59;;;23.39;70.87
15670;BME280;18524;45.190;5.732;2023-05-08T10:29:07;99485.72;;;23.34;70.45
15670;BME280;18524;45.190;5.732;2023-05-08T10:34:02;99479.00;;;23.45;70.29
15670;BME280;18524;45.190;5.732;2023-05-08T10:38:53;99486.22;;;23.99;68.82
15670;BME280;18524;45.190;5.732;2023-05-08T10:43:43;99474.16;;;25.22;64.14
15670;BME280;18524;45.190;5.732;2023-05-08T10:48:55;99474.44;;;26.16;60.15
15670;BME280;18524;45.190;5.732;2023-05-08T10:58:59;99455.84;;;25.77;59.47
15670;BME280;18524;45.190;5.732;2023-05-08T11:03:50;99466.69;;;26.33;53.78
15670;BME280;18524;45.190;5.732;2023-05-08T11:08:51;99453.38;;;26.45;52.78
15670;BME280;18524;45.190;5.732;2023-05-08T11:13:50;99453.25;;;26.02;53.78
15670;BME280;18524;45.190;5.732;2023-05-08T11:24:09;99437.00;;;25.32;56.13
15670;BME280;18524;45.190;5.732;2023-05-08T11:29:00;99433.94;;;24.82;57.72
15670;BME280;18524;45.190;5.732;2023-05-08T11:33:51;99441.22;;;24.55;58.34
15670;BME280;18524;45.190;5.732;2023-05-08T11:38:42;99443.88;;;24.42;60.01
15670;BME280;18524;45.190;5.732;2023-05-08T11:43:37;99441.19;;;24.36;60.38
15670;BME280;18524;45.190;5.732;2023-05-08T11:48:34;99437.28;;;24.31;61.31
15670;BME280;18524;45.190;5.732;2023-05-08T11:53:25;99440.16;;;24.63;60.61
15670;BME280;18524;45.190;5.732;2023-05-08T11:58:15;99430.06;;;24.98;58.85
15670;BME280;18524;45.190;5.732;2023-05-08T12:03:06;99433.53;;;25.63;56.66
15670;BME280;18524;45.190;5.732;2023-05-08T12:07:58;99438.06;;;26.14;55.27
15670;BME280;18524;45.190;5.732;2023-05-08T12:12:48;99427.47;;;26.19;54.84
15670;BME280;18524;45.190;5.732;2023-05-08T12:17:39;99436.25;;;26.08;54.39
15670;BME280;18524;45.190;5.732;2023-05-08T12:22:30;99425.63;;;25.81;55.68
15670;BME280;18524;45.190;5.732;2023-05-08T12:27:23;99428.59;;;25.60;56.24
15670;BME280;18524;45.190;5.732;2023-05-08T12:32:14;99426.34;;;25.57;58.03
15670;BME280;18524;45.190;5.732;2023-05-08T12:37:04;99424.28;;;25.97;55.97
15670;BME280;18524;45.190;5.732;2023-05-08T12:41:55;99421.22;;;25.49;56.59
15670;BME280;18524;45.190;5.732;2023-05-08T12:46:52;99406.03;;;25.16;58.47
15670;BME280;18524;45.190;5.732;2023-05-08T12:51:46;99404.97;;;25.31;58.16
15670;BME280;18524;45.190;5.732;2023-05-08T12:56:41;99417.97;;;25.85;55.84
15670;BME280;18524;45.190;5.732;2023-05-08T13:01:32;99410.78;;;26.10;54.37
15670;BME280;18524;45.190;5.732;2023-05-08T13:06:23;99402.16;;;26.33;54.10
15670;BME280;18524;45.190;5.732;2023-05-08T13:11:13;99389.81;;;26.51;53.17
15670;BME280;18524;45.190;5.732;2023-05-08T13:16:06;99383.38;;;26.52;53.30
15670;BME280;18524;45.190;5.732;2023-05-08T13:20:56;99371.25;;;26.86;52.52
15670;BME280;18524;45.190;5.732;2023-05-08T13:25:47;99359.53;;;26.80;51.90
15670;BME280;18524;45.190;5.732;2023-05-08T13:30:37;99361.22;;;26.25;53.87
15670;BME280;18524;45.190;5.732;2023-05-08T13:35:29;99353.56;;;25.72;56.21
15670;BME280;18524;45.190;5.732;2023-05-08T13:40:19;99353.38;;;25.60;56.32
15670;BME280;18524;45.190;5.732;2023-05-08T13:45:10;99346.34;;;25.59;56.68
15670;BME280;18524;45.190;5.732;2023-05-08T13:50:03;99354.13;;;25.36;57.30
15670;BME280;18524;45.190;5.732;2023-05-08T13:54:54;99343.41;;;25.36;57.79
15670;BME280;18524;45.190;5.732;2023-05-08T13:59:44;99327.53;;;25.28;57.50
15670;BME280;18524;45.190;5.732;2023-05-08T14:04:35;99332.34;;;25.12;58.64
15670;BME280;18524;45.190;5.732;2023-05-08T14:09:25;99317.03;;;25.19;58.37
15670;BME280;18524;45.190;5.732;2023-05-08T14:14:15;99308.06;;;24.81;59.96
15670;BME280;18524;45.190;5.732;2023-05-08T14:19:06;99308.94;;;24.61;60.56
15670;BME280;18524;45.190;5.732;2023-05-08T14:23:56;99317.00;;;24.48;61.13
15670;BME280;18524;45.190;5.732;2023-05-08T14:28:47;99313.31;;;24.43;61.08
15670;BME280;18524;45.190;5.732;2023-05-08T14:33:37;99310.44;;;24.31;61.03
15670;BME280;18524;45.190;5.732;2023-05-08T14:38:28;99290.59;;;24.45;60.57
15670;BME280;18524;45.190;5.732;2023-05-08T14:43:19;99289.75;;;24.51;60.71
15670;BME280;18524;45.190;5.732;2023-05-08T14:48:10;99304.22;;;24.57;60.04
15670;BME280;18524;45.190;5.732;2023-05-08T14:53:00;99298.63;;;24.52;59.89
15670;BME280;18524;45.190;5.732;2023-05-08T14:57:51;99308.53;;;24.51;59.23
15670;BME280;18524;45.190;5.732;2023-05-08T15:02:41;99298.88;;;24.37;59.67
15670;BME280;18524;45.190;5.732;2023-05-08T15:07:32;99302.16;;;24.26;60.12
15670;BME280;18524;45.190;5.732;2023-05-08T15:12:23;99300.09;;;24.15;60.24
15670;BME280;18524;45.190;5.732;2023-05-08T15:17:13;99302.59;;;24.36;59.29
15670;BME280;18524;45.190;5.732;2023-05-08T15:22:04;99299.28;;;24.41;58.55
15670;BME280;18524;45.190;5.732;2023-05-08T15:26:54;99311.88;;;24.34;59.07
15670;BME280;18524;45.190;5.732;2023-05-08T15:31:45;99302.16;;;24.46;59.49
15670;BME280;18524;45.190;5.732;2023-05-08T15:36:35;99308.75;;;24.50;58.69
15670;BME280;18524;45.190;5.732;2023-05-08T15:41:25;99303.44;;;24.30;59.14
15670;BME280;18524;45.190;5.732;2023-05-08T15:46:16;99306.31;;;24.22;60.12
15670;BME280;18524;45.190;5.732;2023-05-08T15:51:06;99318.84;;;24.15;59.43
15670;BME280;18524;45.190;5.732;2023-05-08T15:55:57;99323.59;;;23.99;59.82
15670;BME280;18524;45.190;5.732;2023-05-08T16:00:47;99328.16;;;23.92;59.69
15670;BME280;18524;45.190;5.732;2023-05-08T16:05:38;99339.28;;;23.83;59.87
15670;BME280;18524;45.190;5.732;2023-05-08T16:10:28;99337.78;;;23.67;60.37
15670;BME280;18524;45.190;5.732;2023-05-08T16:15:18;99333.47;;;23.66;60.81
15670;BME280;18524;45.190;5.732;2023-05-08T16:20:09;99338.00;;;23.72;60.85
15670;BME280;18524;45.190;5.732;2023-05-08T16:25:00;99342.16;;;23.94;59.88
15670;BME280;18524;45.190;5.732;2023-05-08T16:29:50;99351.03;;;24.01;59.39
15670;BME280;18524;45.190;5.732;2023-05-08T16:34:41;99353.91;;;23.80;60.25
15670;BME280;18524;45.190;5.732;2023-05-08T16:39:33;99344.78;;;23.68;59.57
15670;BME280;18524;45.190;5.732;2023-05-08T16:44:23;99354.47;;;23.62;59.26
15670;BME280;18524;45.190;5.732;2023-05-08T16:49:14;99353.59;;;23.49;60.19
15670;BME280;18524;45.190;5.732;2023-05-08T16:54:04;99375.41;;;23.52;60.39
15670;BME280;18524;45.190;5.732;2023-05-08T16:58:55;99357.13;;;23.56;60.72
15670;BME280;18524;45.190;5.732;2023-05-08T17:03:45;99362.66;;;23.48;61.07
15670;BME280;18524;45.190;5.732;2023-05-08T17:08:36;99370.81;;;23.39;61.21
15670;BME280;18524;45.190;5.732;2023-05-08T17:13:26;99377.16;;;23.25;61.82
15670;BME280;18524;45.190;5.732;2023-05-08T17:18:17;99383.94;;;23.21;62.19
15670;BME280;18524;45.190;5.732;2023-05-08T17:23:08;99381.97;;;23.02;62.67
15670;BME280;18524;45.190;5.732;2023-05-08T17:27:59;99370.25;;;23.03;63.03
15670;BME280;18524;45.190;5.732;2023-05-08T17:32:50;99378.41;;;22.88;63.08
15670;BME280;18524;45.190;5.732;2023-05-08T17:37:40;99377.28;;;22.76;63.38
15670;BME280;18524;45.190;5.732;2023-05-08T17:42:31;99382.50;;;22.56;63.81
15670;BME280;18524;45.190;5.732;2023-05-08T17:47:21;99383.78;;;22.67;63.23
15670;BME280;18524;45.190;5.732;2023-05-08T17:52:12;99392.31;;;22.49;64.06
15670;BME280;18524;45.190;5.732;2023-05-08T17:57:02;99398.78;;;22.33;64.72
15670;BME280;18524;45.190;5.732;2023-05-08T18:01:52;99386.16;;;22.27;65.14
15670;BME280;18524;45.190;5.732;2023-05-08T18:06:43;99391.25;;;22.22;65.71
15670;BME280;18524;45.190;5.732;2023-05-08T18:11:36;99396.22;;;22.25;65.52
15670;BME280;18524;45.190;5.732;2023-05-08T18:16:27;99396.03;;;22.27;65.43
15670;BME280;18524;45.190;5.732;2023-05-08T18:21:17;99396.78;;;22.21;66.32
15670;BME280;18524;45.190;5.732;2023-05-08T18:26:12;99398.44;;;22.00;66.95
15670;BME280;18524;45.190;5.732;2023-05-08T18:31:02;99395.13;;;21.98;67.69
15670;BME280;18524;45.190;5.732;2023-05-08T18:35:53;99403.44;;;21.89;68.54
15670;BME280;18524;45.190;5.732;2023-05-08T18:40:44;99402.22;;;21.91;68.82
15670;BME280;18524;45.190;5.732;2023-05-08T18:45:40;99416.16;;;21.87;69.49
15670;BME280;18524;45.190;5.732;2023-05-08T18:50:31;99410.06;;;21.71;70.28
15670;BME280;18524;45.190;5.732;2023-05-08T18:55:21;99410.63;;;21.67;71.20
15670;BME280;18524;45.190;5.732;2023-05-08T19:00:14;99414.22;;;21.59;71.54
15670;BME280;18524;45.190;5.732;2023-05-08T19:05:05;99410.53;;;21.60;71.79
15670;BME280;18524;45.190;5.732;2023-05-08T19:09:56;99409.91;;;21.58;72.78
15670;BME280;18524;45.190;5.732;2023-05-08T19:14:46;99410.09;;;21.57;73.01
15670;BME280;18524;45.190;5.732;2023-05-08T19:19:38;99416.59;;;21.54;73.17
15670;BME280;18524;45.190;5.732;2023-05-08T19:24:28;99419.66;;;21.51;73.49
15670;BME280;18524;45.190;5.732;2023-05-08T19:29:19;99419.31;;;21.39;74.44
15670;BME280;18524;45.190;5.732;2023-05-08T19:34:10;99412.16;;;21.25;75.38
15670;BME280;18524;45.190;5.732;2023-05-08T19:39:00;99416.91;;;21.15;75.90
15670;BME280;18524;45.190;5.732;2023-05-08T19:43:51;99435.94;;;21.12;76.43
15670;BME280;18524;45.190;5.732;2023-05-08T19:48:41;99437.06;;;21.03;76.70
15670;BME280;18524;45.190;5.732;2023-05-08T19:53:32;99432.09;;;21.00;76.76
15670;BME280;18524;45.190;5.732;2023-05-08T19:58:22;99429.50;;;20.91;77.38
15670;BME280;18524;45.190;5.732;2023-05-08T20:03:12;99441.94;;;20.84;77.55
15670;BME280;18524;45.190;5.732;2023-05-08T20:08:03;99435.81;;;20.76;77.82
15670;BME280;18524;45.190;5.732;2023-05-08T20:12:53;99434.63;;;20.64;77.80
15670;BME280;18524;45.190;5.732;2023-05-08T20:17:44;99432.13;;;20.62;77.28
15670;BME280;18524;45.190;5.732;2023-05-08T20:22:34;99438.19;;;20.56;77.52
15670;BME280;18524;45.190;5.732;2023-05-08T20:27:24;99433.78;;;20.63;76.95
15670;BME280;18524;45.190;5.732;2023-05-08T20:32:15;99439.09;;;20.48;77.39
15670;BME280;18524;45.190;5.732;2023-05-08T20:37:08;99432.28;;;20.46;77.28
15670;BME280;18524;45.190;5.732;2023-05-08T20:41:58;99433.50;;;20.35;77.72
15670;BME280;18524;45.190;5.732;2023-05-08T20:46:48;99429.72;;;20.29;78.13
15670;BME280;18524;45.190;5.732;2023-05-08T20:51:40;99422.06;;;20.26;78.33
15670;BME280;18524;45.190;5.732;2023-05-08T20:56:30;99431.06;;;20.25;78.39
15670;BME280;18524;45.190;5.732;2023-05-08T21:01:21;99429.78;;;20.21;78.45
15670;BME280;18524;45.190;5.732;2023-05-08T21:06:11;99443.69;;;20.32;78.26
15670;BME280;18524;45.190;5.732;2023-05-08T21:11:02;99447.88;;;20.26;78.49
15670;BME280;18524;45.190;5.732;2023-05-08T21:15:53;99439.06;;;20.25;78.38
15670;BME280;18524;45.190;5.732;2023-05-08T21:20:43;99431.50;;;20.14;79.10
15670;BME280;18524;45.190;5.732;2023-05-08T21:25:39;99435.34;;;20.12;79.04
15670;BME280;18524;45.190;5.732;2023-05-08T21:30:29;99444.91;;;19.98;79.71
15670;BME280;18524;45.190;5.732;2023-05-08T21:35:20;99449.88;;;20.01;79.96
15670;BME280;18524;45.190;5.732;2023-05-08T21:40:11;99451.91;;;19.99;80.05
15670;BME280;18524;45.190;5.732;2023-05-08T21:45:01;99456.38;;;19.98;80.47
15670;BME280;18524;45.190;5.732;2023-05-08T21:49:55;99448.81;;;19.87;81.00
15670;BME280;18524;45.190;5.732;2023-05-08T21:54:49;99453.97;;;19.89;80.56
15670;BME280;18524;45.190;5.732;2023-05-08T21:59:40;99458.34;;;19.82;80.80
15670;BME280;18524;45.190;5.732;2023-05-08T22:04:30;99450.81;;;19.85;80.75
15670;BME280;18524;45.190;5.732;2023-05-08T22:09:21;99439.22;;;19.78;81.33
15670;BME280;18524;45.190;5.732;2023-05-08T22:14:11;99436.25;;;19.73;81.08
15670;BME280;18524;45.190;5.732;2023-05-08T22:19:01;99425.28;;;19.76;81.43
15670;BME280;18524;45.190;5.732;2023-05-08T22:23:52;99427.47;;;19.64;82.08
15670;BME280;18524;45.190;5.732;2023-05-08T22:28:42;99433.31;;;19.60;82.58
15670;BME280;18524;45.190;5.732;2023-05-08T22:33:32;99430.47;;;19.61;82.46
15670;BME280;18524;45.190;5.732;2023-05-08T22:38:23;99433.84;;;19.55;82.70
15670;BME280;18524;45.190;5.732;2023-05-08T22:43:13;99437.84;;;19.51;83.00
15670;BME280;18524;45.190;5.732;2023-05-08T22:48:04;99428.38;;;19.49;83.64
15670;BME280;18524;45.190;5.732;2023-05-08T22:52:54;99425.22;;;19.53;83.78
15670;BME280;18524;45.190;5.732;2023-05-08T22:57:45;99427.03;;;19.53;84.49
15670;BME280;18524;45.190;5.732;2023-05-08T23:02:35;99422.56;;;19.53;84.64
15670;BME280;18524;45.190;5.732;2023-05-08T23:07:26;99417.91;;;19.47;84.58
15670;BME280;18524;45.190;5.732;2023-05-08T23:12:17;99414.94;;;19.42;85.61
15670;BME280;18524;45.190;5.732;2023-05-08T23:17:07;99417.28;;;19.37;85.80
15670;BME280;18524;45.190;5.732;2023-05-08T23:22:02;99406.66;;;19.37;85.83
15670;BME280;18524;45.190;5.732;2023-05-08T23:26:52;99404.34;;;19.26;86.54
15670;BME280;18524;45.190;5.732;2023-05-08T23:31:43;99406.34;;;19.24;86.66
15670;BME280;18524;45.190;5.732;2023-05-08T23:36:33;99399.91;;;19.18;86.81
15670;BME280;18524;45.190;5.732;2023-05-08T23:41:24;99407.41;;;19.15;87.42
15670;BME280;18524;45.190;5.732;2023-05-08T23:46:15;99398.94;;;19.11;87.79
15670;BME280;18524;45.190;5.732;2023-05-08T23:51:05;99410.06;;;19.15;87.76
15670;BME280;18524;45.190;5.732;2023-05-08T23:55:55;99404.28;;;19.03;88.66
